Time;durP1;ratioP1;P1;durP2;ratioP2;P2;SDS_P1;SDS_P2;PMS_P1;PMS_P2;Temp;Humidity;BMP_temperature;BMP_pressure;BME280_temperature;BME280_humidity;BME280_pressure;Samples;Min_cycle;Max_cycle;Signal;HPM_P1;HPM_P2
2023/10/23 00:01:53;;;;;;;0.30;0.20;;;;;;;9.23;95.15;100038.31;4999112;28;20462;-49
2023/10/23 00:04:20;;;;;;;0.30;0.20;;;;;;;9.15;94.77;100035.84;4992941;28;20968;-50
2023/10/23 00:06:46;;;;;;;0.30;0.20;;;;;;;9.12;95.37;100033.28;5007310;28;20580;-49
2023/10/23 00:09:14;;;;;;;0.30;0.20;;;;;;;9.19;94.68;100048.13;5008999;28;20455;-51
2023/10/23 00:11:40;;;;;;;0.30;0.20;;;;;;;9.33;94.89;100049.53;5004531;28;20452;-49
2023/10/23 00:14:07;;;;;;;0.30;0.20;;;;;;;9.17;93.69;100041.09;5001936;28;20541;-49
2023/10/23 00:16:34;;;;;;;0.30;0.20;;;;;;;9.01;93.86;100048.59;4989086;28;20966;-49
2023/10/23 00:19:00;;;;;;;0.30;0.20;;;;;;;9.07;93.57;100050.25;5008821;28;20452;-49
2023/10/23 00:21:26;;;;;;;0.30;0.20;;;;;;;8.76;93.71;100052.78;5004920;28;20849;-50
2023/10/23 00:23:53;;;;;;;0.30;0.20;;;;;;;8.63;93.95;100051.34;5001905;28;20492;-49
2023/10/23 00:26:19;;;;;;;0.30;0.20;;;;;;;8.63;94.63;100051.34;5005988;28;20450;-50
2023/10/23 00:28:48;;;;;;;0.30;0.20;;;;;;;8.57;94.85;100061.19;5009045;28;20981;-49
2023/10/23 00:31:14;;;;;;;0.30;0.20;;;;;;;8.57;94.29;100055.88;5005336;28;20453;-49
2023/10/23 00:33:41;;;;;;;0.30;0.20;;;;;;;8.72;93.86;100059.94;5001716;28;20803;-50
2023/10/23 00:36:08;;;;;;;0.30;0.20;;;;;;;8.68;93.63;100062.72;4987521;28;20501;-49
2023/10/23 00:38:35;;;;;;;0.30;0.20;;;;;;;8.54;94.37;100057.75;5008173;28;20469;-49
2023/10/23 00:41:01;;;;;;;0.30;0.20;;;;;;;8.50;93.78;100064.91;5004998;28;20452;-49
2023/10/23 00:43:27;;;;;;;0.30;0.20;;;;;;;8.54;93.82;100077.16;5001614;28;20811;-49
2023/10/23 00:45:59;;;;;;;0.30;0.20;;;;;;;8.55;93.43;100072.72;5004819;28;20450;-49
2023/10/23 00:48:26;;;;;;;0.30;0.20;;;;;;;8.28;94.30;100080.38;5008341;28;20478;-50
2023/10/23 00:50:58;;;;;;;0.30;0.20;;;;;;;8.31;93.53;100077.66;5006373;28;20964;-49
2023/10/23 00:53:27;;;;;;;0.30;0.20;;;;;;;8.24;92.91;100073.41;5001499;28;20480;-50
2023/10/23 00:55:56;;;;;;;0.30;0.20;;;;;;;8.17;93.95;100068.28;4998466;28;20548;-49
2023/10/23 00:58:27;;;;;;;0.30;0.20;;;;;;;8.16;93.60;100064.75;5008141;28;20489;-50
2023/10/23 01:00:57;;;;;;;0.30;0.20;;;;;;;8.12;93.65;100060.44;5008528;28;20767;-50
2023/10/23 01:03:25;;;;;;;0.30;0.20;;;;;;;8.01;93.70;100051.88;4991193;28;20499;-49
2023/10/23 01:05:51;;;;;;;0.30;0.20;;;;;;;8.01;94.00;100055.38;4998052;28;20501;-49
2023/10/23 01:08:18;;;;;;;0.30;0.20;;;;;;;8.16;93.63;100062.13;5006221;28;20553;-49
2023/10/23 01:10:45;;;;;;;0.30;0.20;;;;;;;8.08;93.15;100066.69;5008037;28;20467;-49
2023/10/23 01:13:12;;;;;;;0.30;0.20;;;;;;;7.98;92.75;100060.75;5003499;28;20524;-48
2023/10/23 01:15:38;;;;;;;0.30;0.20;;;;;;;7.87;93.59;100064.53;5001122;28;20489;-48
2023/10/23 01:18:05;;;;;;;0.30;0.20;;;;;;;8.10;93.77;100072.00;5005599;28;20501;-49
2023/10/23 01:20:32;;;;;;;0.30;0.20;;;;;;;7.94;93.47;100069.66;5007530;28;20463;-50
2023/10/23 01:23:00;;;;;;;0.30;0.20;;;;;;;7.91;93.53;100067.06;5003607;28;20568;-47
2023/10/23 01:25:28;;;;;;;0.30;0.20;;;;;;;7.89;94.32;100071.53;5000774;28;20521;-47
2023/10/23 01:27:55;;;;;;;0.30;0.20;;;;;;;7.79;93.77;100066.47;5004403;28;20994;-47
2023/10/23 01:30:21;;;;;;;0.30;0.20;;;;;;;7.73;93.86;100065.69;5007383;28;20504;-48
2023/10/23 01:32:48;;;;;;;0.30;0.20;;;;;;;7.68;93.15;100064.94;5004455;28;20452;-47
2023/10/23 01:35:15;;;;;;;0.30;0.20;;;;;;;7.61;94.16;100059.78;5000340;28;20484;-47
2023/10/23 01:37:45;;;;;;;0.30;0.20;;;;;;;7.58;92.76;100067.78;5004131;28;20477;-47
2023/10/23 01:40:12;;;;;;;0.30;0.20;;;;;;;7.63;93.58;100068.53;5007664;28;20446;-47
2023/10/23 01:42:38;;;;;;;0.30;0.20;;;;;;;7.61;94.45;100063.28;5004707;28;20535;-46
2023/10/23 01:45:05;;;;;;;0.30;0.20;;;;;;;7.80;93.10;100063.78;5000477;28;20483;-47
2023/10/23 01:47:32;;;;;;;0.30;0.20;;;;;;;7.80;93.50;100068.19;5002904;28;21017;-48
2023/10/23 01:49:58;;;;;;;0.30;0.20;;;;;;;7.57;93.17;100071.34;5006985;28;20485;-47
2023/10/23 01:52:25;;;;;;;0.30;0.20;;;;;;;7.44;94.66;100070.69;5005250;28;20547;-47
2023/10/23 01:54:52;;;;;;;0.30;0.20;;;;;;;7.62;95.07;100067.69;4995720;28;20493;-47
2023/10/23 01:57:19;;;;;;;0.30;0.20;;;;;;;7.82;95.14;100067.28;5004722;28;20620;-46
2023/10/23 01:59:45;;;;;;;0.30;0.20;;;;;;;7.86;94.97;100063.66;5000289;28;20445;-47
2023/10/23 02:02:12;;;;;;;0.30;0.20;;;;;;;7.98;94.77;100060.75;4991900;28;20466;-47
2023/10/23 02:04:39;;;;;;;0.30;0.20;;;;;;;8.03;95.47;100064.16;4995928;28;20506;-47
2023/10/23 02:07:06;;;;;;;0.30;0.20;;;;;;;8.07;94.93;100062.31;5002337;28;20469;-47
2023/10/23 02:09:33;;;;;;;0.30;0.20;;;;;;;8.06;94.97;100065.00;5006656;28;20969;-47
2023/10/23 02:12:00;;;;;;;0.30;0.20;;;;;;;8.02;95.69;100057.13;5004936;28;20475;-47
2023/10/23 02:14:27;;;;;;;0.30;0.20;;;;;;;8.19;95.59;100058.53;4999850;28;20452;-46
2023/10/23 02:16:54;;;;;;;0.30;0.20;;;;;;;8.17;96.08;100066.50;5001263;28;20954;-47
2023/10/23 02:19:20;;;;;;;0.30;0.20;;;;;;;8.26;96.76;100068.09;5006610;28;20457;-46
2023/10/23 02:21:49;;;;;;;0.30;0.20;;;;;;;8.31;97.59;100063.53;5005089;28;20539;-47
2023/10/23 02:24:17;;;;;;;0.30;0.20;;;;;;;8.29;99.27;100065.34;4999708;28;20459;-47
2023/10/23 02:26:43;;;;;;;0.30;0.20;;;;;;;8.21;99.69;100075.25;5000372;28;20481;-48
2023/10/23 02:29:10;;;;;;;0.30;0.20;;;;;;;8.35;100.00;100061.72;5006161;28;20943;-49
2023/10/23 02:31:36;;;;;;;0.30;0.20;;;;;;;8.33;100.00;100067.03;5005762;28;20455;-50
2023/10/23 02:34:03;;;;;;;0.30;0.20;;;;;;;8.37;100.00;100065.22;4996358;28;20448;-49
2023/10/23 02:36:30;;;;;;;0.30;0.20;;;;;;;8.60;100.00;100061.09;4986623;28;20529;-51
2023/10/23 02:38:56;;;;;;;0.30;0.20;;;;;;;8.77;100.00;100066.00;5006030;28;20464;-48
2023/10/23 02:41:23;;;;;;;0.30;0.20;;;;;;;8.82;100.00;100061.47;5006075;28;20543;-49
2023/10/23 02:43:49;;;;;;;0.30;0.20;;;;;;;8.97;100.00;100076.09;5000083;28;20455;-49
2023/10/23 02:46:16;;;;;;;0.30;0.20;;;;;;;8.93;100.00;100077.09;4999040;28;20985;-47
2023/10/23 02:48:42;;;;;;;0.30;0.20;;;;;;;8.93;100.00;100082.41;5005472;28;20477;-47
2023/10/23 02:51:09;;;;;;;0.30;0.20;;;;;;;8.89;100.00;100078.06;4991377;28;20459;-46
2023/10/23 02:53:36;;;;;;;0.30;0.20;;;;;;;8.87;100.00;100078.09;5007750;28;20531;-47
2023/10/23 02:56:02;;;;;;;0.30;0.20;;;;;;;9.10;100.00;100081.97;4995572;28;20492;-47
2023/10/23 02:58:29;;;;;;;0.30;0.20;;;;;;;9.36;100.00;100081.28;5004918;28;20477;-47
2023/10/23 03:00:55;;;;;;;0.30;0.20;;;;;;;9.18;100.00;100085.25;5005790;28;20456;-47
2023/10/23 03:03:22;;;;;;;0.30;0.20;;;;;;;9.23;100.00;100091.34;4979863;28;20837;-48
2023/10/23 03:05:49;;;;;;;0.30;0.20;;;;;;;9.33;100.00;100090.19;5006016;28;20444;-46
2023/10/23 03:08:15;;;;;;;0.30;0.20;;;;;;;9.37;100.00;100086.53;4999388;28;20468;-47
2023/10/23 03:10:42;;;;;;;0.30;0.20;;;;;;;9.30;100.00;100092.03;4998990;28;20544;-47
2023/10/23 03:13:08;;;;;;;0.30;0.20;;;;;;;9.46;100.00;100088.94;5005090;28;20536;-48
2023/10/23 03:15:40;;;;;;;0.30;0.20;;;;;;;9.50;100.00;100087.94;5005790;28;20492;-47
2023/10/23 03:18:06;;;;;;;0.30;0.20;;;;;;;9.64;100.00;100094.66;5000494;28;20531;-47
2023/10/23 03:20:35;;;;;;;0.30;0.20;;;;;;;9.64;100.00;100086.69;4999104;28;20465;-47
2023/10/23 03:23:02;;;;;;;0.30;0.20;;;;;;;9.57;100.00;100085.97;5003767;28;20919;-47
2023/10/23 03:25:29;;;;;;;0.30;0.20;;;;;;;9.37;100.00;100086.53;5005420;28;20455;-47
2023/10/23 03:27:55;;;;;;;0.30;0.20;;;;;;;9.45;100.00;100092.50;5001114;28;20559;-47
2023/10/23 03:30:22;;;;;;;0.30;0.20;;;;;;;9.18;100.00;100095.88;4998851;28;21005;-47
2023/10/23 03:32:48;;;;;;;0.30;0.20;;;;;;;8.97;100.00;100088.50;5002639;28;20973;-48
2023/10/23 03:35:15;;;;;;;0.30;0.20;;;;;;;8.96;100.00;100084.97;4988118;28;20464;-47
2023/10/23 03:37:41;;;;;;;0.30;0.20;;;;;;;9.00;100.00;100081.31;5001545;28;20477;-47
2023/10/23 03:40:10;;;;;;;0.30;0.20;;;;;;;9.04;100.00;100085.63;4998817;28;20540;-47
2023/10/23 03:42:36;;;;;;;0.30;0.20;;;;;;;9.25;100.00;100092.16;5001986;28;20453;-47
2023/10/23 03:45:04;;;;;;;0.30;0.20;;;;;;;9.42;100.00;100081.97;5005560;28;20833;-47
2023/10/23 03:47:31;;;;;;;0.30;0.20;;;;;;;9.44;100.00;100079.28;5002632;28;20472;-46
2023/10/23 03:49:57;;;;;;;0.30;0.20;;;;;;;9.20;100.00;100079.03;4998513;28;20452;-47
2023/10/23 03:52:24;;;;;;;0.30;0.20;;;;;;;9.10;100.00;100087.25;5001929;28;20536;-46
2023/10/23 03:54:50;;;;;;;0.30;0.20;;;;;;;9.34;100.00;100076.03;5001230;28;20954;-48
2023/10/23 03:57:17;;;;;;;0.30;0.20;;;;;;;9.44;100.00;100077.47;5002658;28;20499;-48
2023/10/23 03:59:43;;;;;;;0.30;0.20;;;;;;;9.34;100.00;100073.38;5008551;28;20454;-48
2023/10/23 04:02:10;;;;;;;0.30;0.20;;;;;;;9.49;100.00;100066.78;4982084;28;20468;-48
2023/10/23 04:04:36;;;;;;;0.30;0.20;;;;;;;9.42;100.00;100074.00;4998342;28;20955;-47
2023/10/23 04:07:03;;;;;;;0.30;0.20;;;;;;;9.52;100.00;100074.63;5003069;28;20551;-50
2023/10/23 04:09:30;;;;;;;0.30;0.20;;;;;;;9.56;100.00;100078.06;4998468;28;20536;-49
2023/10/23 04:11:56;;;;;;;0.30;0.20;;;;;;;9.63;100.00;100079.66;5012076;28;20452;-47
2023/10/23 04:14:23;;;;;;;0.30;0.20;;;;;;;9.56;100.00;100067.44;4999121;28;20448;-47
2023/10/23 04:16:49;;;;;;;0.30;0.20;;;;;;;9.58;100.00;100057.66;5004350;28;20496;-47
2023/10/23 04:19:16;;;;;;;0.30;0.20;;;;;;;9.38;100.00;100060.88;5000021;28;20852;-50
2023/10/23 04:21:42;;;;;;;0.30;0.20;;;;;;;9.54;100.00;100066.63;4986864;28;21038;-47
2023/10/23 04:24:09;;;;;;;0.30;0.20;;;;;;;9.53;100.00;100068.41;4999700;28;20453;-47
2023/10/23 04:26:35;;;;;;;0.30;0.20;;;;;;;9.55;100.00;100069.25;5004166;28;20449;-47
2023/10/23 04:29:04;;;;;;;0.30;0.20;;;;;;;9.59;100.00;100062.91;5000550;28;20448;-48
2023/10/23 04:31:30;;;;;;;0.30;0.20;;;;;;;9.53;100.00;100064.88;5003476;28;20930;-47
2023/10/23 04:33:57;;;;;;;0.30;0.20;;;;;;;9.68;100.00;100053.84;5008573;28;20938;-48
2023/10/23 04:36:23;;;;;;;0.30;0.20;;;;;;;9.43;100.00;100059.81;4995327;28;20493;-48
2023/10/23 04:38:50;;;;;;;0.30;0.20;;;;;;;9.46;100.00;100050.94;4990984;28;20974;-48
2023/10/23 04:41:19;;;;;;;0.30;0.20;;;;;;;9.37;100.00;100056.50;4995669;28;20496;-48
2023/10/23 04:43:45;;;;;;;0.30;0.20;;;;;;;9.47;100.00;100055.34;5008452;28;20799;-48
2023/10/23 04:46:12;;;;;;;0.30;0.20;;;;;;;9.63;100.00;100059.28;4995514;28;20445;-48
2023/10/23 04:48:38;;;;;;;0.30;0.20;;;;;;;9.66;100.00;100051.22;5014339;28;20464;-48
2023/10/23 04:51:05;;;;;;;0.30;0.20;;;;;;;9.49;100.00;100049.06;5014890;28;20469;-47
2023/10/23 04:53:31;;;;;;;0.30;0.20;;;;;;;9.46;100.00;100057.13;5001597;28;20526;-48
2023/10/23 04:55:58;;;;;;;0.30;0.20;;;;;;;9.45;100.00;100062.44;4998213;28;20489;-47
2023/10/23 04:58:25;;;;;;;0.30;0.20;;;;;;;9.64;100.00;100061.03;4995224;28;20485;-48
2023/10/23 05:00:52;;;;;;;0.30;0.20;;;;;;;9.66;100.00;100048.56;5008224;28;20456;-48
2023/10/23 05:03:18;;;;;;;0.30;0.20;;;;;;;9.54;100.00;100054.22;4982297;28;21017;-48
2023/10/23 05:05:47;;;;;;;0.30;0.20;;;;;;;9.42;100.00;100052.78;5007943;28;20535;-48
2023/10/23 05:08:13;;;;;;;0.30;0.20;;;;;;;9.53;100.00;100057.81;5002228;28;20918;-48
2023/10/23 05:10:40;;;;;;;0.30;0.20;;;;;;;9.79;100.00;100057.06;5000766;28;20477;-48
2023/10/23 05:13:06;;;;;;;0.30;0.20;;;;;;;9.53;100.00;100062.25;5002296;28;20964;-48
2023/10/23 05:15:33;;;;;;;0.30;0.20;;;;;;;9.61;100.00;100058.47;5000851;28;20867;-48
2023/10/23 05:17:59;;;;;;;0.30;0.20;;;;;;;9.90;100.00;100057.63;5006865;28;20843;-48
2023/10/23 05:20:26;;;;;;;0.30;0.20;;;;;;;9.73;100.00;100052.81;5007644;28;20488;-48
2023/10/23 05:22:52;;;;;;;0.30;0.20;;;;;;;9.59;100.00;100054.09;5002525;28;20448;-48
2023/10/23 05:25:19;;;;;;;0.30;0.20;;;;;;;9.37;100.00;100046.75;5012564;28;20444;-48
2023/10/23 05:27:45;;;;;;;0.30;0.20;;;;;;;9.88;100.00;100061.25;5002192;28;21000;-47
2023/10/23 05:30:12;;;;;;;0.30;0.20;;;;;;;9.69;100.00;100055.56;5001024;28;20464;-48
2023/10/23 05:32:38;;;;;;;0.30;0.20;;;;;;;9.47;100.00;100057.97;5014061;28;20453;-48
2023/10/23 05:35:06;;;;;;;0.30;0.20;;;;;;;9.55;100.00;100057.75;4995436;28;20472;-48
2023/10/23 05:37:33;;;;;;;0.30;0.20;;;;;;;9.51;100.00;100067.59;5002515;28;20499;-48
2023/10/23 05:40:00;;;;;;;0.30;0.20;;;;;;;9.64;100.00;100062.81;5000909;28;20445;-49
2023/10/23 05:42:26;;;;;;;0.30;0.20;;;;;;;9.83;100.00;100071.97;5005389;28;20457;-48
2023/10/23 05:44:53;;;;;;;0.30;0.20;;;;;;;10.26;100.00;100074.25;5004854;28;21017;-48
2023/10/23 05:47:19;;;;;;;0.30;0.20;;;;;;;9.84;100.00;100081.69;4983498;28;20560;-48
2023/10/23 05:49:45;;;;;;;0.30;0.20;;;;;;;9.87;100.00;100072.75;5007177;28;20830;-48
2023/10/23 05:52:12;;;;;;;0.30;0.20;;;;;;;10.15;100.00;100065.72;5003291;28;20499;-48
2023/10/23 05:54:38;;;;;;;0.30;0.20;;;;;;;9.90;100.00;100067.38;4997733;28;20548;-48
2023/10/23 05:57:05;;;;;;;0.30;0.20;;;;;;;9.80;100.00;100070.28;5002828;28;20488;-48
2023/10/23 05:59:32;;;;;;;0.30;0.20;;;;;;;9.82;100.00;100080.84;5000287;28;20472;-49
2023/10/23 06:01:59;;;;;;;0.30;0.20;;;;;;;9.80;100.00;100078.25;4995316;28;20463;-48
2023/10/23 06:04:25;;;;;;;0.30;0.20;;;;;;;9.69;100.00;100082.97;5002824;28;20452;-47
2023/10/23 06:06:52;;;;;;;0.30;0.20;;;;;;;9.45;100.00;100081.00;5013447;28;20465;-48
2023/10/23 06:09:18;;;;;;;0.30;0.20;;;;;;;9.75;100.00;100089.91;4996966;28;20581;-48
2023/10/23 06:11:45;;;;;;;0.30;0.20;;;;;;;9.76;100.00;100091.66;5003605;28;21048;-48
2023/10/23 06:14:12;;;;;;;0.30;0.20;;;;;;;9.83;100.00;100087.03;5000064;28;20820;-48
2023/10/23 06:16:38;;;;;;;0.30;0.20;;;;;;;9.49;100.00;100090.66;5012725;28;20489;-48
2023/10/23 06:19:05;;;;;;;0.30;0.20;;;;;;;9.64;100.00;100084.91;4993482;28;20509;-47
2023/10/23 06:21:32;;;;;;;0.30;0.20;;;;;;;9.27;100.00;100079.72;4994571;28;20460;-48
2023/10/23 06:23:58;;;;;;;0.30;0.20;;;;;;;8.96;100.00;100090.28;5000135;28;20548;-47
2023/10/23 06:26:28;;;;;;;0.30;0.20;;;;;;;9.01;100.00;100093.66;5002895;28;20455;-48
2023/10/23 06:28:55;;;;;;;0.30;0.20;;;;;;;8.94;100.00;100096.53;5010629;28;20896;-48
2023/10/23 06:31:22;;;;;;;0.30;0.20;;;;;;;9.08;100.00;100091.75;5002132;28;20491;-48
2023/10/23 06:33:51;;;;;;;0.30;0.20;;;;;;;9.33;100.00;100094.63;5002289;28;20453;-48
2023/10/23 06:36:17;;;;;;;0.30;0.20;;;;;;;9.28;100.00;100097.38;4996181;28;20493;-48
2023/10/23 06:38:43;;;;;;;0.30;0.20;;;;;;;9.27;100.00;100094.78;4998758;28;20473;-48
2023/10/23 06:41:10;;;;;;;0.30;0.20;;;;;;;9.31;100.00;100093.78;5001649;28;20454;-48
2023/10/23 06:43:41;;;;;;;0.30;0.20;;;;;;;9.58;100.00;100086.84;4997855;28;20894;-48
2023/10/23 06:46:07;;;;;;;0.30;0.20;;;;;;;9.28;100.00;100086.78;5000609;28;20923;-48
2023/10/23 06:48:34;;;;;;;0.30;0.20;;;;;;;9.90;100.00;100089.47;5006275;28;20520;-48
2023/10/23 06:51:01;;;;;;;0.30;0.20;;;;;;;9.58;100.00;100086.84;4993333;28;20458;-48
2023/10/23 06:53:27;;;;;;;0.30;0.20;;;;;;;9.56;100.00;100092.19;4998781;28;20452;-48
2023/10/23 06:55:55;;;;;;;0.30;0.20;;;;;;;9.46;100.00;100101.34;4996397;28;21010;-48
2023/10/23 06:58:22;;;;;;;0.30;0.20;;;;;;;9.53;100.00;100094.06;4988447;28;20489;-48
2023/10/23 07:00:48;;;;;;;0.30;0.20;;;;;;;9.72;100.00;100089.97;5005732;28;20552;-49
2023/10/23 07:03:16;;;;;;;0.30;0.20;;;;;;;9.85;100.00;100091.38;4999488;28;20468;-49
2023/10/23 07:05:43;;;;;;;0.30;0.20;;;;;;;10.21;100.00;100089.47;4997333;28;20449;-49
2023/10/23 07:08:09;;;;;;;0.30;0.20;;;;;;;10.03;100.00;100090.88;4986205;28;20974;-49
2023/10/23 07:10:36;;;;;;;0.30;0.20;;;;;;;9.98;100.00;100071.53;4999238;28;20994;-48
2023/10/23 07:13:03;;;;;;;0.30;0.20;;;;;;;10.06;100.00;100064.22;4986618;28;20452;-49
2023/10/23 07:15:40;;;;;;;0.30;0.20;;;;;;;10.48;100.00;100062.97;4999356;28;20445;-49
2023/10/23 07:18:10;;;;;;;0.30;0.20;;;;;;;10.42;100.00;100066.69;5003841;28;20490;-49
2023/10/23 07:20:36;;;;;;;0.30;0.20;;;;;;;10.43;100.00;100064.91;5005858;28;20452;-49
2023/10/23 07:23:03;;;;;;;0.30;0.20;;;;;;;10.33;100.00;100073.16;5001662;28;20494;-49
2023/10/23 07:25:29;;;;;;;0.30;0.20;;;;;;;10.36;100.00;100062.41;4998838;28;20537;-48
2023/10/23 07:27:56;;;;;;;0.30;0.20;;;;;;;10.55;100.00;100049.44;5003492;28;20528;-49
2023/10/23 07:30:24;;;;;;;0.30;0.20;;;;;;;10.55;100.00;100056.50;5005701;28;20456;-48
2023/10/23 07:32:50;;;;;;;0.30;0.20;;;;;;;10.42;100.00;100055.19;5002480;28;20539;-48
2023/10/23 07:35:17;;;;;;;0.30;0.20;;;;;;;10.12;100.00;100067.59;4998914;28;20448;-49
2023/10/23 07:37:43;;;;;;;0.30;0.20;;;;;;;10.09;100.00;100073.88;5002286;28;20497;-49
2023/10/23 07:40:10;;;;;;;0.30;0.20;;;;;;;10.03;100.00;100079.38;5005990;28;20538;-49
2023/10/23 07:42:37;;;;;;;0.30;0.20;;;;;;;10.03;100.00;100077.59;5002935;28;20531;-48
2023/10/23 07:45:04;;;;;;;0.30;0.20;;;;;;;10.23;100.00;100079.66;4999071;28;20455;-49
2023/10/23 07:47:31;;;;;;;0.30;0.20;;;;;;;10.43;100.00;100075.53;5001882;28;20476;-49
2023/10/23 07:49:57;;;;;;;0.30;0.20;;;;;;;10.79;100.00;100076.97;5008717;28;20449;-48
2023/10/23 07:52:24;;;;;;;0.30;0.20;;;;;;;10.57;100.00;100075.97;5006623;28;20451;-50
2023/10/23 07:54:50;;;;;;;0.30;0.20;;;;;;;10.65;100.00;100057.97;4998920;28;20481;-48
2023/10/23 07:57:17;;;;;;;0.30;0.20;;;;;;;10.58;100.00;100059.97;5006615;28;20618;-49
2023/10/23 07:59:43;;;;;;;0.30;0.20;;;;;;;10.72;100.00;100054.19;5002766;28;20510;-48
2023/10/23 08:02:10;;;;;;;0.30;0.20;;;;;;;10.55;100.00;100059.16;4994732;28;20940;-49
2023/10/23 08:04:36;;;;;;;0.30;0.20;;;;;;;10.54;100.00;100057.44;4998152;28;20510;-49
2023/10/23 08:07:03;;;;;;;0.30;0.20;;;;;;;10.95;100.00;100064.03;4987258;28;20470;-49
2023/10/23 08:09:30;;;;;;;0.30;0.20;;;;;;;10.58;100.00;100062.63;5009433;28;20456;-48
2023/10/23 08:11:56;;;;;;;0.30;0.20;;;;;;;10.48;100.00;100053.19;5006923;28;20452;-48
2023/10/23 08:14:23;;;;;;;0.30;0.20;;;;;;;10.60;100.00;100054.59;5002263;28;20954;-49
2023/10/23 08:16:52;;;;;;;0.30;0.20;;;;;;;10.65;100.00;100056.16;5004686;28;20493;-48
2023/10/23 08:19:19;;;;;;;0.30;0.20;;;;;;;10.75;100.00;100064.72;5009003;28;20939;-50
2023/10/23 08:21:47;;;;;;;0.30;0.20;;;;;;;10.55;100.00;100061.81;5006807;28;20811;-49
2023/10/23 08:24:15;;;;;;;0.30;0.20;;;;;;;10.78;100.00;100059.28;5002080;28;20531;-49
2023/10/23 08:26:41;;;;;;;0.30;0.20;;;;;;;11.21;100.00;100045.41;5003913;28;20488;-49
2023/10/23 08:29:08;;;;;;;0.70;0.67;;;;;;;11.24;100.00;100042.66;5008535;28;20449;-49
2023/10/23 08:31:34;;;;;;;0.30;0.20;;;;;;;11.28;100.00;100038.97;5007564;28;20972;-48
2023/10/23 08:34:07;;;;;;;0.30;0.20;;;;;;;11.11;100.00;100033.38;4997662;28;20820;-49
2023/10/23 08:36:34;;;;;;;0.30;0.20;;;;;;;11.31;100.00;100043.28;4989256;28;20876;-49
2023/10/23 08:39:01;;;;;;;0.30;0.20;;;;;;;11.48;100.00;100040.03;5008520;28;20453;-48
2023/10/23 08:41:28;;;;;;;0.30;0.20;;;;;;;11.11;100.00;100040.47;5008573;28;20878;-49
2023/10/23 08:43:55;;;;;;;0.30;0.20;;;;;;;11.07;100.00;100046.81;5002402;28;20879;-48
2023/10/23 08:46:29;;;;;;;0.30;0.20;;;;;;;10.95;100.00;100042.78;5002322;28;20460;-48
2023/10/23 08:48:56;;;;;;;0.30;0.20;;;;;;;11.21;100.00;100036.56;5006975;28;20470;-49
2023/10/23 08:51:23;;;;;;;0.30;0.20;;;;;;;11.52;100.00;100031.88;5006888;28;20511;-49
2023/10/23 08:53:55;;;;;;;0.30;0.20;;;;;;;11.54;100.00;100024.72;4992147;28;20453;-48
2023/10/23 08:56:25;;;;;;;0.30;0.20;;;;;;;11.62;100.00;100012.88;4988055;28;20460;-49
2023/10/23 08:58:57;;;;;;;0.30;0.20;;;;;;;11.15;100.00;100012.84;5004243;28;20477;-49
2023/10/23 09:01:27;;;;;;;0.30;0.20;;;;;;;11.51;100.00;100010.63;5003420;28;20464;-49
2023/10/23 09:03:54;;;;;;;0.30;0.20;;;;;;;11.45;100.00;100014.38;4986975;28;20943;-49
2023/10/23 09:06:30;;;;;;;0.30;0.20;;;;;;;11.28;100.00;100009.69;5008304;28;20456;-49
2023/10/23 09:08:57;;;;;;;0.30;0.20;;;;;;;11.33;100.00;100011.31;5008046;28;20502;-48
2023/10/23 09:11:37;;;;;;;0.30;0.20;;;;;;;11.17;100.00;100013.66;5007662;28;20504;-49
2023/10/23 09:14:04;;;;;;;0.30;0.20;;;;;;;11.25;100.00;100008.94;5007683;28;20922;-48
2023/10/23 09:16:30;;;;;;;0.30;0.20;;;;;;;11.61;100.00;100000.50;5003292;28;20507;-49
2023/10/23 09:18:57;;;;;;;0.30;0.20;;;;;;;11.36;100.00;100009.38;5001244;28;20456;-49
2023/10/23 09:21:24;;;;;;;0.30;0.20;;;;;;;11.24;100.00;100001.88;5005456;28;20459;-49
2023/10/23 09:23:56;;;;;;;0.30;0.20;;;;;;;11.24;100.00;99999.22;5007620;28;20499;-49
2023/10/23 09:26:23;;;;;;;0.30;0.20;;;;;;;11.19;100.00;99994.03;5004499;28;20462;-48
2023/10/23 09:28:52;;;;;;;0.30;0.20;;;;;;;11.35;100.00;99993.47;5000854;28;20465;-50
2023/10/23 09:31:20;;;;;;;0.30;0.20;;;;;;;11.44;100.00;99994.03;5004213;28;20456;-48
2023/10/23 09:33:50;;;;;;;0.30;0.20;;;;;;;11.40;100.00;100000.41;5007530;28;20961;-49
2023/10/23 09:36:17;;;;;;;0.30;0.20;;;;;;;11.63;100.00;99996.00;4996649;28;20460;-48
2023/10/23 09:38:59;;;;;;;0.30;0.20;;;;;;;11.47;100.00;100009.00;5000432;28;20565;-48
2023/10/23 09:41:27;;;;;;;0.30;0.20;;;;;;;11.81;100.00;100000.66;5000699;28;20926;-49
2023/10/23 09:43:56;;;;;;;0.30;0.20;;;;;;;11.83;100.00;100001.47;5006917;28;20461;-49
2023/10/23 09:46:28;;;;;;;0.30;0.20;;;;;;;11.83;100.00;99994.34;5007305;28;20449;-48
2023/10/23 09:48:59;;;;;;;0.30;0.20;;;;;;;11.87;100.00;99992.44;4985069;28;20524;-49
2023/10/23 09:51:36;;;;;;;0.30;0.20;;;;;;;11.71;100.00;99994.78;5000471;28;20782;-49
2023/10/23 09:54:12;;;;;;;0.30;0.20;;;;;;;11.71;100.00;99984.13;5003254;28;20492;-50
2023/10/23 09:56:39;;;;;;;0.30;0.20;;;;;;;11.48;100.00;99984.13;4994122;28;20468;-48
2023/10/23 09:59:07;;;;;;;0.30;0.20;;;;;;;11.84;100.00;99987.22;5006473;28;20460;-52
2023/10/23 10:01:36;;;;;;;0.30;0.20;;;;;;;11.94;100.00;99982.44;4995004;28;20468;-51
2023/10/23 10:04:26;;;;;;;0.30;0.20;;;;;;;12.03;100.00;99988.25;5003624;28;20452;-52
2023/10/23 10:06:55;;;;;;;0.30;0.20;;;;;;;12.57;100.00;99989.59;5004470;28;21040;-52
2023/10/23 10:09:24;;;;;;;0.30;0.20;;;;;;;11.94;100.00;99982.44;5006997;28;20457;-52
2023/10/23 10:11:55;;;;;;;0.30;0.20;;;;;;;11.90;100.00;99967.47;5003122;28;20453;-52
2023/10/23 10:14:24;;;;;;;0.30;0.20;;;;;;;11.80;100.00;99972.31;5000387;28;20514;-52
2023/10/23 10:16:55;;;;;;;0.30;0.20;;;;;;;11.82;100.00;99973.13;5002294;28;20461;-52
2023/10/23 10:19:22;;;;;;;0.30;0.20;;;;;;;11.97;100.00;99972.50;5006973;28;20829;-52
2023/10/23 10:22:07;;;;;;;0.30;0.20;;;;;;;11.89;100.00;99973.72;5005656;28;20459;-52
2023/10/23 10:24:36;;;;;;;0.30;0.20;;;;;;;12.13;100.00;99972.75;4990074;28;20445;-52
2023/10/23 10:27:03;;;;;;;0.30;0.20;;;;;;;12.69;100.00;99965.09;4999952;28;20469;-52
2023/10/23 10:29:31;;;;;;;0.30;0.20;;;;;;;12.45;100.00;99964.31;5004916;28;20925;-52
2023/10/23 10:32:10;;;;;;;0.30;0.20;;;;;;;12.30;100.00;99964.94;5006279;28;20459;-52
2023/10/23 10:34:45;;;;;;;0.30;0.20;;;;;;;12.35;100.00;99955.00;4991293;28;20821;-52
2023/10/23 10:37:13;;;;;;;0.30;0.20;;;;;;;12.51;100.00;99959.69;4997003;28;20508;-52
2023/10/23 10:39:52;;;;;;;0.30;0.20;;;;;;;12.37;100.00;99953.13;5001100;28;20536;-52
2023/10/23 10:42:23;;;;;;;0.30;0.20;;;;;;;12.40;100.00;99963.66;4988033;28;20506;-52
2023/10/23 10:44:52;;;;;;;1.93;1.83;;;;;;;12.48;100.00;99954.47;5000002;28;20451;-52
2023/10/23 10:47:19;;;;;;;0.30;0.20;;;;;;;12.48;100.00;99949.16;5004393;28;20470;-52
2023/10/23 10:49:47;;;;;;;0.30;0.20;;;;;;;12.35;100.00;99933.66;5006746;28;20453;-52
2023/10/23 10:52:27;;;;;;;0.30;0.20;;;;;;;12.51;100.00;99925.03;5002151;28;20544;-52
2023/10/23 10:54:55;;;;;;;0.30;0.30;;;;;;;12.66;100.00;99916.38;4995238;28;20500;-52
2023/10/23 10:57:22;;;;;;;0.30;0.20;;;;;;;13.08;100.00;99902.94;4993122;28;20556;-52
2023/10/23 10:59:55;;;;;;;0.30;0.20;;;;;;;13.07;100.00;99906.53;5006073;28;20481;-52
2023/10/23 11:02:25;;;;;;;0.30;0.20;;;;;;;13.08;100.00;99896.72;4993710;28;20918;-52
2023/10/23 11:04:52;;;;;;;0.30;0.20;;;;;;;12.92;100.00;99891.22;5002129;28;20461;-51
2023/10/23 11:07:23;;;;;;;0.50;0.47;;;;;;;13.58;100.00;99891.78;5005842;28;20961;-52
2023/10/23 11:09:50;;;;;;;0.30;0.20;;;;;;;13.71;99.34;99886.72;4988306;28;20452;-52
2023/10/23 11:12:18;;;;;;;0.30;0.20;;;;;;;13.39;99.61;99885.53;4999604;28;20489;-52
2023/10/23 11:14:46;;;;;;;0.40;0.20;;;;;;;13.70;100.00;99876.94;5005149;28;20453;-52
2023/10/23 11:17:13;;;;;;;0.30;0.20;;;;;;;13.27;99.63;99882.50;5004673;28;20472;-52
2023/10/23 11:19:44;;;;;;;0.30;0.20;;;;;;;13.32;100.00;99875.16;4990372;28;20475;-52
2023/10/23 11:22:12;;;;;;;2.83;2.53;;;;;;;13.34;99.95;99864.41;4999377;28;20481;-52
2023/10/23 11:24:39;;;;;;;0.30;0.20;;;;;;;13.97;99.37;99861.38;5006296;28;20459;-52
2023/10/23 11:27:07;;;;;;;0.30;0.20;;;;;;;13.93;98.01;99853.50;5010183;28;20476;-52